Timeline UpdatesTrip UpdatesNews PostsPvt PostsTravel TipsAdmin PostsConv PostsFollowed PostsChat RequestsBlog PostsPNR Posts

Disclaimer
Search
 
 
Tue Sep 16, 2014 14:56:14 ISTHomeTrainsΣChainsAtlasPNRForumGalleryNewsFAQTripsMembersLoginFeedback
No Recent News for this Train
Other Trains in the News **new
Latest...
.
Wed Feb 26, 2014 (06:54PM)
⇐ Return Journey: Train# 15018

15017/Kashi Express

Time-Table HAS CHANGED.
Sep 04 (3:45AM)
Change Departure Station:
Change Arrival Station:
Post a Train Travel TipPost a Train Travel Tip **new
Post a Comment/Question/Picture/VideoPost a Comment/Question/Picture/Video
Pantry/Catering
✕ NO Pantry Car
✓ Catering Avbl
Loco/Rake Reversals
ALD/Allahabad Junction (10);
RSA - Rake Sharing
No RSA.
Rake/Coach Composition
Loco-GEN-GEN-GEN-S1-S2-S3-S4-S5-S6-S7-S8-S9-S10-S11-S12-A1-B1-GEN-GEN-SLR; As per Shubham in # 127749.
Loco
LTT-ET :-BSL/ET WAP-4 / WAM-4 ET-GKP :-ET WDM-3A/3D.
News    PNR    Forum    Time-Table    Availability    Fare Chart    Map    Arr/Dep History    Trips    Gallery    ΣChains    X/O    Timeline    
Travel Time: 36h 35m    70 halts    Distance: 1709 km    Avg Speed: 46 km/hr
Type: Mail/Express
Zone: NER/North Eastern
Departs @ 06:35 (Avg 8m late)
Platform# 3
SMTWTFS
Mumbai Lokmanya Tilak Terminus/LTT 
Arrives @ 19:10 +1 night (Avg 12m late)
Platform# 6
SMTWTFS
Gorakhpur Junction/GKP 

70 halts. 230 intermediate Stations between Mumbai Lokmanya Tilak Terminus and Gorakhpur Junction

Show ALL intermediate Stations  Show Old Time-Table

#CodeStation NameX/OArrivesAvgDepartsAvgHaltPFDay#KmSpeedElevZoneAddress
1LTT»Mumbai Lokmanya Tilak Terminus (5)»  -06:35+8310.0417mCRMumbai - 400089, Maharashtra
2TNAThane (10)X  06:59+1007:00+111m7116.56710mCRThane (West) 400602, Maharashtra
3KYNKalyan Junction (8)  07:18+1907:22+214m4136.76110mCRKalyan 421301, Maharashtra
4KSRAKasara (4)XO  08:28+2408:30+302m11104.125290mCRDist. Thane 421602, Maharashtra
5IGPIgatpuri (4)X09:05+2209:10+285m21118.571589mCRIgatpuri 422403, Maharashtra
6DVLDevlali (3)X  09:48+3209:50+332m11163.434561mCRDist. Nashik 422401, Maharashtra
7NKNasik Road (3)  10:00+3010:05+305m21169.183563mCRNashik 422101, Maharashtra
8LSLasalgaon (3)  10:43 10:40+2910:45 10:42+292m--1217.482592mCRLasalgaon, Maharashtra
9MMRManmad Junction (6)X  11:05 11:00+3611:10 11:05+365m21241.985580mCRManmad 423104, Maharashtra
10NGNNandgaon (3)  11:28 11:23+4111:30 11:25+412m--1267.390476mCRNandgaon, Maharashtra
11CSNChalisgaon Junction (3)X  11:58 11:53+4412:00 11:55+442m--1309.496352mCRChalisgaon 424101, Maharashtra
12PCPachora Junction (4)  12:28 12:23+5012:30 12:25+522m--1354.389264mCRPachora 424201, Maharashtra
13JLJalgaon Junction (4)  13:02 12:57+5913:05 13:00+593m31402.058213mCRJalgaon 425001, Maharashtra
14BSLBhusaval Junction (8)X  13:40 13:25+4813:50 13:35+5110m--1426.169208mCRBhusaval 425201, Maharashtra
15RVRaver (2)X  14:20 14:05+5914:22 14:07+1:012m--1460.476242mCRJalgaon, Maharashtra
16BAUBurhanpur (2)  14:38 14:23+1:0114:40 14:25+1:022m21480.668269mCRBurhanpur, Madhya Pradesh
17NPNRNepanagar (2)  14:58 14:48+1:1015:00 14:50+1:112m--1506.826289mCRState Highway 27, Madhya Pradesh
18KNWKhandwa Junction (5)XO  16:40 16:30+1716:45 16:35+185m11549.541310mCRKhandwa, Madhya Pradesh
19TLVTalvadiya (2)X  16:58+2517:00+262m--1565.271308mWCRKhandwa, Madhya Pradesh
20SGBJSurgaon Banjari (2)X  17:10+2517:12+262m--1577.077298mWCRKhandwa, Madhya Pradesh
21CAERChhanera (2)  17:26+3017:28+332m--1594.961283mWCRChhanera, Madhya Pradesh
22BRUDBarud (2)  17:38+3317:40+372m--1605.095273mWCRKhandwa, Madhya Pradesh
23KKNKhirkiya (2)  17:53+4317:55+1:132m21625.6105281mWCRSH 15, Madhya Pradesh
24HDHarda (3)XO  18:13+1:1618:15+1:162m--1657.156289mWCRHarda, Madhya Pradesh
25TBNTimarni (2)X  18:30+1:1818:32+1:232m--1671.250308mWCRTimarni, Madhya Pradesh
26BPFBanapura (2)XO  19:06+1:1219:08+1:192m--1699.416314mWCRBanapura, Madhya Pradesh
27ETItarsi Junction (7)X21:10+1121:20+2110m11732.974329mWCRItarsi 461111, Madhya Pradesh
28SGPSohagpur (2)X  22:00+4122:02+432m--1782.476340mWCRSohagpur, Madhya Pradesh
29PPIPipariya (3)  22:16+4422:18+452m11800.199338mWCRPiparia, Madhya Pradesh
30GARGadarwara (2)X  22:48+5422:50+542m11849.568352mWCRNarsinghpur, Madhya Pradesh
31KYKareli (2)  23:15+5223:17+522m11878.086361mWCRKareli, Madhya Pradesh
32NUNarsinghpur (2)  23:28+5523:30+552m11893.860365mWCRNarsimhapur, Madhya Pradesh
33SRIDShridham (3)X  00:01+5000:03+502m22925.076373mWCRShridham, Madhya Pradesh
34MMLMadan Mahal (3)  00:42+4700:44+472m22974.618428mWCRJabalpur, Madhya Pradesh
35JBPJabalpur Junction (4)X  00:55+3901:05+4410m32977.959416mWCRJabalpur, Madhya Pradesh
36SHRSihora Road (2)XO  01:36 01:44+4701:38 01:46+472m--21016.5-388mWCRJabalpur, Madhya Pradesh
37KTEKatni Junction (6)X  02:20 02:00+5002:25+485 25m--21068.767387mWCRKatni, Madhya Pradesh
38MYRMaihar (3)X  03:21+4403:23+442m121131.779353mWCRMaihar Railway Station, Madhya Pradesh
39STASatna Junction (3)X  03:55 03:50+4004:05 04:00+4110m--21167.171322mWCRSatna, Madhya Pradesh
40JTWJaitwar (2)X  04:22 04:17+4604:24 04:19+472m--21187.238321mWCRJaitwar, Madhya Pradesh
41MKPManikpur Junction (4)X  05:50+2005:55+225m221244.875250mNCRManikpur, Uttar Pradesh
42DBRDabhaura (2)X  06:13+2406:15+242m--21267.372201mNCRDabhaura, Uttar Pradesh
43SRJShankargarh (3)  06:42+2406:44+242m221299.866132mNCRShankargarh, Uttar Pradesh
44JSRJasra (2)X  07:04+2507:06+252m--21321.62497mNCRJasra, Uttar Pradesh
45NYNNaini Junction (4)X  07:45+1407:47+192m421337.21998mNCRAllahabad, Uttar Pradesh
46ALDAllahabad Junction (10)O08:10+2108:30+2320m921344.322100mNCRAllahabad 211003, Uttar Pradesh
47PRGPrayag Junction (3)XO  08:47+3208:49+362m--21350.61596mNRAllahabad, Uttar Pradesh
48PFMPhaphamau Junction (3)XO  09:14+2309:15+241m--21357.05699mNRAllahabad, Uttar Pradesh
49SYCSarai ChandiO  09:29+2509:30+261m--21370.15395mNR221507, Uttar Pradesh
50PLPPhulpur (3)O  09:42+3009:43+301m121380.66993mNRDistrict - Allahabad 212402, Uttar Pradesh
51URPRUgrasenpur (2)  09:52+3409:53+351m121391.05096mNRJanghai, Uttar Pradesh
52JNHJanghai Junction (3)O  10:08+3810:10+432m121403.63092mNRUttar Pradesh 212401, Uttar Pradesh
53SQNSarai Kansrai (2)XO  10:20+4210:21+471m--21408.63892mNRGopalaha Marg, Uttar Pradesh
54SAWSuriawan (2)O  10:37+4510:38+471m--21418.74890mNR221404, Uttar Pradesh
55MOFMondh (2)  10:47+4910:48+511m121425.94491mNRUttar Pradesh 221406, Uttar Pradesh
56BOYBhadohi (2)O  10:59+5311:01+542m--21434.03890mNRUttar Pradesh 221401, Uttar Pradesh
57PRFParsipur (2)O  11:14+5411:15+551m--21442.35687mNRSant Ravidas Nagar, Uttar Pradesh
58KEHKapseti (2)O  11:24+5611:25+571m--21450.73585mNRState Highway 87, Uttar Pradesh
59SWPRSewapuri (2)X  11:34+5911:35+1:011m121456.02187mNRState Highway 87, Uttar Pradesh
60BSBVaranasi Junction (9)X  12:40+2613:00+2320m521478.52482mNRVaranasi 221002, Uttar Pradesh
61BCYVaranasi City (3)  13:08+3713:10+422m--21481.84777mNERVaranasi, Uttar Pradesh
62ARJAunrihar Junction (4)  13:43 13:51+5413:45 13:53+542m--21513.67480mNERGhazipur, Uttar Pradesh
63JKNJakhanian  14:09 14:16+1:0614:11 14:18+1:082m--21542.15182mNERState Highway 67, Uttar Pradesh
64DLRDullahapur  14:28+1:0114:30+1:022m--21550.63279mNERDullahapur, Uttar Pradesh
65MAUMau Junction (4)  15:05 15:10+4415:10 15:15+445m221571.63175mNERMau., Uttar Pradesh
66IAAIndara Junction (3)O  15:25 15:30+5215:27 15:32+532m--21579.44274mNERMau, Uttar Pradesh
67BLTRBelthara Road (2)  16:03 16:11+4716:05 16:13+502m--21606.56170mNERBelthara, Uttar Pradesh
68LRDLar Road (2)  16:13 16:26+3916:15 16:28+412m--21619.62674mNERDeoria, Uttar Pradesh
69SRUSalempur Junction (2)X  16:46 16:50+2416:48 16:52+252m--21629.12771mNERSalempur, Uttar Pradesh
70BTTBhatni Junction (5)XO  17:10 17:15+2017:15 17:20+275m--21639.36273mNERDeoria, Uttar Pradesh
71DEOSDeoria Sadar (3)  17:33 17:40+3017:35 17:45+322 5m--21660.13579mNERDeoria- 274001, Uttar Pradesh
72GKP•Gorakhpur Junction (10)•  19:10+12-621709.2-84mNERGorakhpur 273001, Uttar Pradesh
Scroll to Top
Scroll to Bottom